createdAt,value
2022-10-25T00:01:29.404Z,84.79
2022-10-25T00:03:56.467Z,84.83
2022-10-25T00:06:23.777Z,84.14
2022-10-25T00:08:50.481Z,84.73
2022-10-25T00:11:26.175Z,84.62
2022-10-25T00:13:54.999Z,84.95
2022-10-25T00:16:24.336Z,84.88
2022-10-25T00:18:51.641Z,85.03
2022-10-25T00:21:18.868Z,84.81
2022-10-25T00:23:45.847Z,84.33
2022-10-25T00:26:12.792Z,84.68
2022-10-25T00:28:39.841Z,85.10
2022-10-25T00:31:09.492Z,84.62
2022-10-25T00:33:37.988Z,84.49
2022-10-25T00:36:08.339Z,84.83
2022-10-25T00:38:35.360Z,84.82
2022-10-25T00:41:02.631Z,84.44
2022-10-25T00:43:42.070Z,85.05
2022-10-25T00:46:23.715Z,84.79
2022-10-25T00:48:59.014Z,84.83
2022-10-25T00:51:42.066Z,85.26
2022-10-25T00:54:11.971Z,85.02
2022-10-25T00:56:42.095Z,84.41
2022-10-25T00:59:13.949Z,84.79
2022-10-25T01:01:41.798Z,84.32
2022-10-25T01:04:11.753Z,84.31
2022-10-25T01:06:40.863Z,84.29
2022-10-25T01:09:10.619Z,84.05
2022-10-25T01:11:37.995Z,83.86
2022-10-25T01:14:07.596Z,83.40
2022-10-25T01:16:36.890Z,83.67
2022-10-25T01:19:31.073Z,83.36
2022-10-25T01:22:22.187Z,83.21
2022-10-25T01:25:10.006Z,83.35
2022-10-25T01:28:15.675Z,82.90
2022-10-25T01:31:00.641Z,83.12
2022-10-25T01:34:11.631Z,82.82
2022-10-25T01:36:44.879Z,82.42
2022-10-25T01:39:33.333Z,82.28
2022-10-25T01:42:14.382Z,82.77
2022-10-25T01:44:54.239Z,82.60
2022-10-25T01:47:26.300Z,82.96
2022-10-25T01:49:57.591Z,82.85
2022-10-25T01:52:24.788Z,82.87
2022-10-25T01:54:52.334Z,82.80
2022-10-25T01:57:49.534Z,82.82
2022-10-25T02:00:18.579Z,82.45
2022-10-25T02:02:48.316Z,82.72
2022-10-25T02:05:26.186Z,82.60
2022-10-25T02:07:55.686Z,82.87
2022-10-25T02:10:42.678Z,83.52
2022-10-25T02:13:24.794Z,83.04
2022-10-25T02:16:14.255Z,83.09
2022-10-25T02:18:47.144Z,82.74
2022-10-25T02:21:16.478Z,83.01
2022-10-25T02:23:43.302Z,83.24
2022-10-25T02:26:11.375Z,83.51
2022-10-25T02:28:40.273Z,83.38
2022-10-25T02:31:10.390Z,83.39
2022-10-25T02:33:37.780Z,83.58
2022-10-25T02:36:09.618Z,84.13
2022-10-25T02:38:36.373Z,83.78
2022-10-25T02:41:04.720Z,83.74
2022-10-25T02:43:31.667Z,84.34
2022-10-25T02:45:58.829Z,84.07
2022-10-25T02:48:25.953Z,84.21
2022-10-25T02:50:52.638Z,84.54
2022-10-25T02:53:19.190Z,85.33
2022-10-25T02:55:45.692Z,85.47
2022-10-25T02:58:12.276Z,85.00
2022-10-25T03:00:38.864Z,85.05
2022-10-25T03:03:05.462Z,85.35
2022-10-25T03:05:32.020Z,85.27
2022-10-25T03:07:58.566Z,85.49
2022-10-25T03:10:25.075Z,85.40
2022-10-25T03:12:51.496Z,85.47
2022-10-25T03:15:17.993Z,84.72
2022-10-25T03:17:44.667Z,84.68
2022-10-25T03:20:11.461Z,84.65
2022-10-25T03:22:37.958Z,84.46
2022-10-25T03:25:05.001Z,84.74
2022-10-25T03:27:31.578Z,84.30
2022-10-25T03:29:58.058Z,84.78
2022-10-25T03:32:24.538Z,85.09
2022-10-25T03:34:51.198Z,84.61
2022-10-25T03:37:17.765Z,84.72
2022-10-25T03:39:44.313Z,84.55
2022-10-25T03:42:10.814Z,84.01
2022-10-25T03:44:37.347Z,83.92
2022-10-25T03:47:03.871Z,83.81
2022-10-25T03:49:30.413Z,84.09
2022-10-25T03:51:58.981Z,83.79
2022-10-25T03:54:29.266Z,83.46
2022-10-25T03:56:56.110Z,83.26
2022-10-25T03:59:22.645Z,83.47
2022-10-25T04:01:49.249Z,83.28
2022-10-25T04:04:15.929Z,83.40
2022-10-25T04:06:42.449Z,82.73
2022-10-25T04:09:09.279Z,82.85
2022-10-25T04:11:35.819Z,83.12
2022-10-25T04:14:02.469Z,83.18
2022-10-25T04:16:29.067Z,82.74
2022-10-25T04:18:55.677Z,83.09
2022-10-25T04:21:22.265Z,82.89
2022-10-25T04:23:49.929Z,83.34
2022-10-25T04:26:18.675Z,83.28
2022-10-25T04:28:49.941Z,83.10
2022-10-25T04:31:16.575Z,83.10
2022-10-25T04:33:46.520Z,83.21
2022-10-25T04:36:15.645Z,83.05
2022-10-25T04:38:42.219Z,82.69
2022-10-25T04:41:09.774Z,82.70
2022-10-25T04:43:36.932Z,82.57
2022-10-25T04:46:04.078Z,82.49
2022-10-25T04:48:30.859Z,82.77
2022-10-25T04:51:00.607Z,82.78
2022-10-25T04:53:27.451Z,83.52
2022-10-25T04:56:08.591Z,83.03
2022-10-25T04:58:36.291Z,81.70
2022-10-25T05:01:12.416Z,81.07
2022-10-25T05:03:39.689Z,80.66
2022-10-25T05:06:12.156Z,80.27
2022-10-25T05:08:40.611Z,79.83
2022-10-25T05:11:08.625Z,79.91
2022-10-25T05:13:36.390Z,78.07
2022-10-25T05:16:03.343Z,77.80
2022-10-25T05:18:34.445Z,78.44
2022-10-25T05:21:04.706Z,78.35
2022-10-25T05:23:33.638Z,78.43
2022-10-25T05:26:07.497Z,77.93
2022-10-25T05:28:36.204Z,78.18
2022-10-25T05:31:07.929Z,77.73
2022-10-25T05:33:34.706Z,76.24
2022-10-25T05:36:02.725Z,76.07
2022-10-25T05:38:32.038Z,75.18
2022-10-25T05:41:02.120Z,75.86
2022-10-25T05:43:29.167Z,75.08
2022-10-25T05:46:16.093Z,76.54
2022-10-25T05:48:48.382Z,77.29
2022-10-25T05:51:33.130Z,77.17
2022-10-25T05:54:02.863Z,77.16
2022-10-25T05:56:31.219Z,77.25
2022-10-25T05:58:58.221Z,76.24
2022-10-25T06:01:27.016Z,76.33
2022-10-25T06:03:55.284Z,74.96
2022-10-25T06:06:23.107Z,75.95
2022-10-25T06:08:49.932Z,75.77
2022-10-25T06:11:18.727Z,76.79
2022-10-25T06:13:46.035Z,76.68
2022-10-25T06:16:15.768Z,75.90
2022-10-25T06:18:43.156Z,75.80
2022-10-25T06:21:12.774Z,75.06
2022-10-25T06:23:40.439Z,74.63
2022-10-25T06:26:10.040Z,74.25
2022-10-25T06:28:37.059Z,74.20
2022-10-25T06:31:05.844Z,74.55
2022-10-25T06:33:32.546Z,73.49
2022-10-25T06:36:01.696Z,73.19
2022-10-25T06:38:29.379Z,73.86
2022-10-25T06:41:03.515Z,74.29
2022-10-25T06:43:30.970Z,74.33
2022-10-25T06:45:57.863Z,73.69
2022-10-25T06:48:24.691Z,74.94
2022-10-25T06:51:21.818Z,74.75
2022-10-25T06:53:54.100Z,75.25
2022-10-25T06:56:20.759Z,75.19
2022-10-25T06:58:47.421Z,76.03
2022-10-25T07:01:16.472Z,77.01
2022-10-25T07:03:43.610Z,76.64
2022-10-25T07:06:13.086Z,76.96
2022-10-25T07:08:41.892Z,77.19
2022-10-25T07:11:13.561Z,77.21
2022-10-25T07:13:40.077Z,77.24
2022-10-25T07:16:09.641Z,77.00
2022-10-25T07:18:36.934Z,77.33
2022-10-25T07:21:11.838Z,78.44
2022-10-25T07:23:42.456Z,77.53
2022-10-25T07:26:33.640Z,76.98
2022-10-25T07:29:01.569Z,78.67
2022-10-25T07:31:34.066Z,78.86
2022-10-25T07:34:03.198Z,78.34
2022-10-25T07:36:30.182Z,77.65
2022-10-25T07:38:57.168Z,78.00
2022-10-25T07:41:25.200Z,77.99
2022-10-25T07:43:51.919Z,78.63
2022-10-25T07:46:18.587Z,79.27
2022-10-25T07:48:45.236Z,79.02
2022-10-25T07:51:13.875Z,78.71
2022-10-25T07:53:41.054Z,79.19
2022-10-25T07:56:12.119Z,79.49
2022-10-25T07:58:38.664Z,79.65
2022-10-25T08:01:07.782Z,79.55
2022-10-25T08:03:34.681Z,79.37
2022-10-25T08:06:01.991Z,80.18
2022-10-25T08:08:29.488Z,79.72
2022-10-25T08:10:56.848Z,79.92
2022-10-25T08:13:23.802Z,79.41
2022-10-25T08:15:55.355Z,79.77
2022-10-25T08:18:23.491Z,80.10
2022-10-25T08:21:01.823Z,80.25
2022-10-25T08:23:31.674Z,80.03
2022-10-25T08:25:58.637Z,80.58
2022-10-25T08:28:25.168Z,81.02
2022-10-25T08:30:54.459Z,79.98
2022-10-25T08:33:21.157Z,79.64
2022-10-25T08:35:47.668Z,79.78
2022-10-25T08:38:14.259Z,80.85
2022-10-25T08:41:06.812Z,80.47
2022-10-25T08:43:56.022Z,78.47
2022-10-25T08:46:28.871Z,79.31
2022-10-25T08:49:11.664Z,77.98
2022-10-25T08:51:41.937Z,76.38
2022-10-25T08:54:25.700Z,77.10
2022-10-25T08:57:16.248Z,76.59
2022-10-25T08:59:47.296Z,76.43
2022-10-25T09:02:32.662Z,75.63
2022-10-25T09:04:59.757Z,75.79
2022-10-25T09:07:42.851Z,75.18
2022-10-25T09:10:41.038Z,74.04
2022-10-25T09:13:10.890Z,72.60
2022-10-25T09:15:40.453Z,74.32
2022-10-25T09:18:16.729Z,74.52
2022-10-25T09:20:49.700Z,74.69
2022-10-25T09:23:30.434Z,74.81
2022-10-25T09:26:10.306Z,74.72
2022-10-25T09:28:57.816Z,75.11
2022-10-25T09:31:25.589Z,75.00
2022-10-25T09:34:03.185Z,75.68
2022-10-25T09:36:37.237Z,72.61
2022-10-25T09:39:15.842Z,71.33
2022-10-25T09:41:48.939Z,71.86
2022-10-25T09:44:40.445Z,73.17
2022-10-25T09:47:48.718Z,72.45
2022-10-25T09:50:27.432Z,71.15
2022-10-25T09:53:06.309Z,71.58
2022-10-25T09:55:33.570Z,72.38
2022-10-25T09:58:01.724Z,71.62
2022-10-25T10:00:29.077Z,72.30
2022-10-25T10:02:55.841Z,71.43
2022-10-25T10:05:22.779Z,71.21
2022-10-25T10:07:50.777Z,69.58
2022-10-25T10:10:24.213Z,69.58
2022-10-25T10:13:08.465Z,72.04
2022-10-25T10:15:49.894Z,72.20
2022-10-25T10:18:25.332Z,70.41
2022-10-25T10:21:10.238Z,70.76
2022-10-25T10:23:44.473Z,70.71
2022-10-25T10:26:23.284Z,70.62
2022-10-25T10:28:55.076Z,70.95
2022-10-25T10:31:21.992Z,70.53
2022-10-25T10:33:52.289Z,69.05
2022-10-25T10:36:36.827Z,69.73
2022-10-25T10:39:33.123Z,69.34
2022-10-25T10:42:15.165Z,68.73
2022-10-25T10:44:41.798Z,68.54
2022-10-25T10:47:19.992Z,68.78
2022-10-25T10:49:47.861Z,67.68
2022-10-25T10:52:31.385Z,66.51
2022-10-25T10:54:59.074Z,68.83
2022-10-25T10:57:36.052Z,68.00
2022-10-25T11:00:04.058Z,67.94
2022-10-25T11:02:41.776Z,68.16
2022-10-25T11:05:26.351Z,67.41
2022-10-25T11:08:17.252Z,68.11
2022-10-25T11:10:43.906Z,68.19
2022-10-25T11:13:13.349Z,66.56
2022-10-25T11:15:42.692Z,67.75
2022-10-25T11:18:12.719Z,68.48
2022-10-25T11:20:39.270Z,68.01
2022-10-25T11:23:19.216Z,67.47
2022-10-25T11:25:48.693Z,67.37
2022-10-25T11:28:30.134Z,65.96
2022-10-25T11:30:56.594Z,65.39
2022-10-25T11:33:41.200Z,65.30
2022-10-25T11:36:10.610Z,64.97
2022-10-25T11:39:10.578Z,64.92
2022-10-25T11:42:00.631Z,65.29
2022-10-25T11:44:30.259Z,64.71
2022-10-25T11:47:09.033Z,63.99
2022-10-25T11:50:14.640Z,63.76
2022-10-25T11:53:08.701Z,64.39
2022-10-25T11:55:42.666Z,65.13
2022-10-25T11:58:39.630Z,64.94
2022-10-25T12:01:09.273Z,65.35
2022-10-25T12:04:10.247Z,65.88
2022-10-25T12:06:54.648Z,65.12
2022-10-25T12:09:40.089Z,64.53
2022-10-25T12:12:11.828Z,63.90
2022-10-25T12:14:43.482Z,63.06
2022-10-25T12:17:26.720Z,63.05
2022-10-25T12:19:56.074Z,62.42
2022-10-25T12:22:45.819Z,62.75
2022-10-25T12:25:28.227Z,63.24
2022-10-25T12:28:27.791Z,62.87
2022-10-25T12:31:01.925Z,62.89
2022-10-25T12:33:35.134Z,63.02
2022-10-25T12:36:12.051Z,63.53
2022-10-25T12:38:39.977Z,63.37
2022-10-25T12:41:15.353Z,63.80
2022-10-25T12:44:07.914Z,63.65
2022-10-25T12:46:34.397Z,62.35
2022-10-25T12:49:19.244Z,61.31
2022-10-25T12:52:10.436Z,61.26
2022-10-25T12:54:39.845Z,59.92
2022-10-25T12:57:31.196Z,59.67
2022-10-25T13:00:22.563Z,59.16
2022-10-25T13:03:22.912Z,57.19
2022-10-25T13:05:58.542Z,58.68
2022-10-25T13:08:26.733Z,56.40
2022-10-25T13:11:05.495Z,56.05
2022-10-25T13:13:40.190Z,55.59
2022-10-25T13:16:10.386Z,54.80
2022-10-25T13:18:43.672Z,54.88
2022-10-25T13:21:16.879Z,55.49
2022-10-25T13:23:43.378Z,52.84
2022-10-25T13:26:15.117Z,52.85
2022-10-25T13:28:48.602Z,53.10
2022-10-25T13:31:33.793Z,52.17
2022-10-25T13:34:12.648Z,54.41
2022-10-25T13:36:52.477Z,53.93
2022-10-25T13:39:44.407Z,52.94
2022-10-25T13:42:27.821Z,51.56
2022-10-25T13:44:56.361Z,50.29
2022-10-25T13:47:37.333Z,50.87
2022-10-25T13:50:28.117Z,51.73
2022-10-25T13:53:00.235Z,50.52
2022-10-25T13:55:34.802Z,49.44
2022-10-25T13:58:01.695Z,48.78
2022-10-25T14:00:33.083Z,47.69
2022-10-25T14:03:08.707Z,48.99
2022-10-25T14:05:53.710Z,49.39
2022-10-25T14:08:44.651Z,47.12
2022-10-25T14:11:23.673Z,45.15
2022-10-25T14:14:14.115Z,47.60
2022-10-25T14:16:55.974Z,46.60
2022-10-25T14:19:31.960Z,46.15
2022-10-25T14:22:04.816Z,45.36
2022-10-25T14:24:31.844Z,47.10
2022-10-25T14:27:01.156Z,47.37
2022-10-25T14:29:29.631Z,47.25
2022-10-25T14:31:57.091Z,50.17
2022-10-25T14:34:27.022Z,49.91
2022-10-25T14:36:58.468Z,49.34
2022-10-25T14:39:28.176Z,52.06
2022-10-25T14:41:57.214Z,52.64
2022-10-25T14:44:28.835Z,53.17
2022-10-25T14:46:56.698Z,54.17
2022-10-25T14:49:24.334Z,55.02
2022-10-25T14:51:54.584Z,54.26
2022-10-25T14:54:33.708Z,54.19
2022-10-25T14:57:04.237Z,53.56
2022-10-25T14:59:42.737Z,53.36
2022-10-25T15:02:17.578Z,53.72
2022-10-25T15:04:48.529Z,55.31
2022-10-25T15:07:26.948Z,56.01
2022-10-25T15:09:56.245Z,55.50
2022-10-25T15:12:25.212Z,55.97
2022-10-25T15:14:53.523Z,55.83
2022-10-25T15:17:22.837Z,56.76
2022-10-25T15:19:59.603Z,57.16
2022-10-25T15:22:32.623Z,58.36
2022-10-25T15:24:59.598Z,59.01
2022-10-25T15:27:32.003Z,59.54
2022-10-25T15:29:58.640Z,59.75
2022-10-25T15:32:27.631Z,59.96
2022-10-25T15:34:57.875Z,60.51
2022-10-25T15:37:26.222Z,61.38
2022-10-25T15:39:54.394Z,61.08
2022-10-25T15:42:23.905Z,61.27
2022-10-25T15:44:50.614Z,61.82
2022-10-25T15:47:31.236Z,62.29
2022-10-25T15:49:58.919Z,62.20
2022-10-25T15:52:26.090Z,62.56
2022-10-25T15:54:52.784Z,62.92
2022-10-25T15:57:19.404Z,63.44
2022-10-25T15:59:45.991Z,63.49
2022-10-25T16:02:23.448Z,63.22
2022-10-25T16:04:50.066Z,63.91
2022-10-25T16:07:16.656Z,65.02
2022-10-25T16:09:43.565Z,65.09
2022-10-25T16:12:19.747Z,65.52
2022-10-25T16:14:46.612Z,65.97
2022-10-25T16:17:13.977Z,66.25
2022-10-25T16:19:40.913Z,66.20
2022-10-25T16:22:07.562Z,66.93
2022-10-25T16:24:34.115Z,66.62
2022-10-25T16:27:01.243Z,67.56
2022-10-25T16:29:27.905Z,67.59
2022-10-25T16:31:54.683Z,67.92
2022-10-25T16:34:21.514Z,68.48
2022-10-25T16:36:50.497Z,69.43
2022-10-25T16:39:17.077Z,69.64
2022-10-25T16:41:45.612Z,69.82
2022-10-25T16:44:13.773Z,70.30
2022-10-25T16:46:40.356Z,70.86
2022-10-25T16:49:09.140Z,71.02
2022-10-25T16:51:36.938Z,71.39
2022-10-25T16:54:03.737Z,71.64
2022-10-25T16:56:30.356Z,71.74
2022-10-25T16:58:57.019Z,72.25
2022-10-25T17:01:29.743Z,72.48
2022-10-25T17:03:56.327Z,73.12
2022-10-25T17:06:40.290Z,73.23
2022-10-25T17:09:08.138Z,73.31
2022-10-25T17:11:34.745Z,73.35
2022-10-25T17:14:01.434Z,73.94
2022-10-25T17:16:28.121Z,74.22
2022-10-25T17:18:54.627Z,74.36
2022-10-25T17:21:21.192Z,74.65
2022-10-25T17:23:47.826Z,74.43
2022-10-25T17:26:14.670Z,74.62
2022-10-25T17:28:43.983Z,75.16
2022-10-25T17:31:13.220Z,75.28
2022-10-25T17:33:40.696Z,75.37
2022-10-25T17:36:13.710Z,75.38
2022-10-25T17:38:41.128Z,75.70
2022-10-25T17:41:08.210Z,75.73
2022-10-25T17:43:36.446Z,76.09
2022-10-25T17:46:05.961Z,76.29
2022-10-25T17:48:33.213Z,76.43
2022-10-25T17:51:04.332Z,77.00
2022-10-25T17:53:31.227Z,76.85
2022-10-25T17:55:58.188Z,77.28
2022-10-25T17:58:25.095Z,77.52
2022-10-25T18:00:54.412Z,77.72
2022-10-25T18:03:21.326Z,77.62
2022-10-25T18:05:48.402Z,77.68
2022-10-25T18:08:15.178Z,77.97
2022-10-25T18:10:41.722Z,77.90
2022-10-25T18:13:08.355Z,77.78
2022-10-25T18:15:38.261Z,77.80
2022-10-25T18:18:04.944Z,77.99
2022-10-25T18:20:31.543Z,78.17
2022-10-25T18:22:58.058Z,78.38
2022-10-25T18:25:24.644Z,78.33
2022-10-25T18:27:51.457Z,78.68
2022-10-25T18:30:18.164Z,78.36
2022-10-25T18:32:44.698Z,78.45
2022-10-25T18:35:11.430Z,78.71
2022-10-25T18:37:38.147Z,78.55
2022-10-25T18:40:05.510Z,78.83
2022-10-25T18:42:32.151Z,78.49
2022-10-25T18:44:58.671Z,78.69
2022-10-25T18:47:25.211Z,79.12
2022-10-25T18:49:51.731Z,78.64
2022-10-25T18:52:18.250Z,78.85
2022-10-25T18:54:44.815Z,78.74
2022-10-25T18:57:11.626Z,78.83
2022-10-25T18:59:38.192Z,79.13
2022-10-25T19:02:04.813Z,79.17
2022-10-25T19:04:31.413Z,79.44
2022-10-25T19:06:57.961Z,79.58
2022-10-25T19:09:24.651Z,79.50
2022-10-25T19:11:51.224Z,79.82
2022-10-25T19:14:17.802Z,79.29
2022-10-25T19:16:45.015Z,79.13
2022-10-25T19:19:12.311Z,79.59
2022-10-25T19:21:39.078Z,79.67
2022-10-25T19:24:06.328Z,79.43
2022-10-25T19:26:33.470Z,79.42
2022-10-25T19:29:01.281Z,79.40
2022-10-25T19:31:28.984Z,79.58
2022-10-25T19:34:00.241Z,79.95
2022-10-25T19:36:27.064Z,79.54
2022-10-25T19:38:53.864Z,79.44
2022-10-25T19:41:28.630Z,79.73
2022-10-25T19:43:56.832Z,79.81
2022-10-25T19:46:23.907Z,80.05
2022-10-25T19:48:50.835Z,79.87
2022-10-25T19:51:20.172Z,79.67
2022-10-25T19:53:47.540Z,79.83
2022-10-25T19:56:18.126Z,80.00
2022-10-25T19:58:45.744Z,79.83
2022-10-25T20:01:15.892Z,80.01
2022-10-25T20:03:44.819Z,79.68
2022-10-25T20:06:18.700Z,79.75
2022-10-25T20:08:48.513Z,79.59
2022-10-25T20:11:17.076Z,79.66
2022-10-25T20:13:44.451Z,79.69
2022-10-25T20:16:11.731Z,79.58
2022-10-25T20:18:40.103Z,79.78
2022-10-25T20:21:13.922Z,79.62
2022-10-25T20:23:43.332Z,80.04
2022-10-25T20:26:21.958Z,79.53
2022-10-25T20:28:49.486Z,79.64
2022-10-25T20:31:16.490Z,79.75
2022-10-25T20:33:43.281Z,79.46
2022-10-25T20:36:12.767Z,79.50
2022-10-25T20:38:40.113Z,79.41
2022-10-25T20:41:10.347Z,79.96
2022-10-25T20:43:38.310Z,79.45
2022-10-25T20:46:06.303Z,79.01
2022-10-25T20:48:32.992Z,79.22
2022-10-25T20:51:04.143Z,79.21
2022-10-25T20:53:34.218Z,79.22
2022-10-25T20:56:00.870Z,79.33
2022-10-25T20:58:27.436Z,79.62
2022-10-25T21:00:56.263Z,79.57
2022-10-25T21:03:24.907Z,78.94
2022-10-25T21:05:56.505Z,79.46
2022-10-25T21:08:23.534Z,79.31
2022-10-25T21:10:54.181Z,79.74
2022-10-25T21:13:22.042Z,79.36
2022-10-25T21:15:49.573Z,79.28
2022-10-25T21:18:16.656Z,79.65
2022-10-25T21:20:44.031Z,79.54
2022-10-25T21:23:11.064Z,79.55
2022-10-25T21:25:37.687Z,79.67
2022-10-25T21:28:05.914Z,79.61
2022-10-25T21:30:32.551Z,79.82
2022-10-25T21:32:59.491Z,79.38
2022-10-25T21:35:26.067Z,79.74
2022-10-25T21:37:52.679Z,79.64
2022-10-25T21:40:19.571Z,79.40
2022-10-25T21:42:46.162Z,79.64
2022-10-25T21:45:12.679Z,79.22
2022-10-25T21:47:39.432Z,79.34
2022-10-25T21:50:09.178Z,79.32
2022-10-25T21:52:36.827Z,79.35
2022-10-25T21:55:03.583Z,79.34
2022-10-25T21:57:30.745Z,79.23
2022-10-25T21:59:57.283Z,78.93
2022-10-25T22:02:24.052Z,79.54
2022-10-25T22:04:50.666Z,79.82
2022-10-25T22:07:17.166Z,79.60
2022-10-25T22:09:43.803Z,79.72
2022-10-25T22:12:10.310Z,80.04
2022-10-25T22:14:36.907Z,80.18
2022-10-25T22:17:03.530Z,80.50
2022-10-25T22:19:30.294Z,81.23
2022-10-25T22:21:56.860Z,80.89
2022-10-25T22:24:23.459Z,81.10
2022-10-25T22:26:51.252Z,81.42
2022-10-25T22:29:17.843Z,81.52
2022-10-25T22:31:44.435Z,82.19
2022-10-25T22:34:11.033Z,82.05
2022-10-25T22:36:39.851Z,82.46
2022-10-25T22:39:07.493Z,82.29
2022-10-25T22:41:34.570Z,82.44
2022-10-25T22:44:02.506Z,82.62
2022-10-25T22:46:34.273Z,82.69
2022-10-25T22:49:08.741Z,82.40
2022-10-25T22:51:36.240Z,82.82
2022-10-25T22:54:03.259Z,82.86
2022-10-25T22:56:31.207Z,82.84
2022-10-25T22:59:00.050Z,82.88
2022-10-25T23:01:28.883Z,83.17
2022-10-25T23:03:57.035Z,83.32
2022-10-25T23:06:26.441Z,83.33
2022-10-25T23:08:54.687Z,83.41
2022-10-25T23:11:26.779Z,83.50
2022-10-25T23:13:53.184Z,83.80
2022-10-25T23:16:20.237Z,83.58
2022-10-25T23:18:46.806Z,83.43
2022-10-25T23:21:19.131Z,83.77
2022-10-25T23:23:47.169Z,83.60
2022-10-25T23:26:19.690Z,83.97
2022-10-25T23:28:46.275Z,83.85
2022-10-25T23:31:13.892Z,83.56
2022-10-25T23:33:41.827Z,83.71
2022-10-25T23:36:15.695Z,83.81
2022-10-25T23:38:43.394Z,83.66
2022-10-25T23:41:09.985Z,83.78
2022-10-25T23:43:36.547Z,83.71
2022-10-25T23:46:03.996Z,83.67
2022-10-25T23:48:31.340Z,83.63
2022-10-25T23:51:03.676Z,83.17
2022-10-25T23:53:30.219Z,82.75
2022-10-25T23:55:56.786Z,82.95
2022-10-25T23:58:23.763Z,83.03
